createdAt,value
2019-05-26T00:00:16.774Z,83.08
2019-05-26T00:02:46.171Z,82.80
2019-05-26T00:05:15.807Z,82.73
2019-05-26T00:07:45.360Z,82.47
2019-05-26T00:10:15.395Z,82.20
2019-05-26T00:12:44.920Z,82.65
2019-05-26T00:15:15.008Z,82.68
2019-05-26T00:17:44.410Z,82.69
2019-05-26T00:20:14.185Z,82.42
2019-05-26T00:22:43.821Z,82.48
2019-05-26T00:25:13.399Z,82.27
2019-05-26T00:27:42.814Z,82.17
2019-05-26T00:30:13.103Z,82.42
2019-05-26T00:32:42.624Z,82.43
2019-05-26T00:35:12.646Z,82.52
2019-05-26T00:37:50.555Z,82.83
2019-05-26T00:40:13.371Z,82.96
2019-05-26T00:42:42.777Z,82.50
2019-05-26T00:45:14.136Z,82.57
2019-05-26T00:47:43.887Z,82.47
2019-05-26T00:50:13.783Z,81.97
2019-05-26T00:52:43.251Z,82.04
2019-05-26T00:55:13.116Z,82.41
2019-05-26T00:57:42.707Z,81.87
2019-05-26T01:00:12.799Z,82.36
2019-05-26T01:02:42.251Z,82.54
2019-05-26T01:05:12.787Z,82.76
2019-05-26T01:07:42.236Z,83.01
2019-05-26T01:10:11.987Z,83.20
2019-05-26T01:12:41.858Z,83.02
2019-05-26T01:15:11.562Z,83.32
2019-05-26T01:17:41.411Z,83.59
2019-05-26T01:20:11.847Z,83.66
2019-05-26T01:22:41.344Z,83.82
2019-05-26T01:25:11.183Z,83.28
2019-05-26T01:27:40.611Z,82.87
2019-05-26T01:30:10.662Z,82.33
2019-05-26T01:32:40.180Z,82.27
2019-05-26T01:35:10.043Z,82.08
2019-05-26T01:37:40.020Z,82.02
2019-05-26T01:40:10.870Z,81.48
2019-05-26T01:42:40.359Z,81.39
2019-05-26T01:45:10.118Z,81.10
2019-05-26T01:47:39.608Z,80.59
2019-05-26T01:50:09.672Z,80.65
2019-05-26T01:52:39.270Z,80.96
2019-05-26T01:55:09.065Z,80.29
2019-05-26T01:57:38.674Z,79.97
2019-05-26T02:00:09.407Z,80.40
2019-05-26T02:02:39.167Z,80.31
2019-05-26T02:05:08.654Z,80.21
2019-05-26T02:07:39.143Z,80.64
2019-05-26T02:10:08.815Z,80.75
2019-05-26T02:12:38.627Z,80.26
2019-05-26T02:15:09.358Z,80.57
2019-05-26T02:17:38.936Z,80.73
2019-05-26T02:20:08.919Z,80.39
2019-05-26T02:22:38.529Z,80.24
2019-05-26T02:25:09.174Z,80.55
2019-05-26T02:27:39.771Z,80.68
2019-05-26T02:30:29.976Z,80.55
2019-05-26T02:32:59.634Z,80.64
2019-05-26T02:35:29.105Z,80.75
2019-05-26T02:37:58.523Z,81.09
2019-05-26T02:40:28.279Z,81.08
2019-05-26T02:42:58.445Z,81.27
2019-05-26T02:45:28.072Z,81.37
2019-05-26T02:47:58.358Z,81.39
2019-05-26T02:50:27.896Z,81.54
2019-05-26T02:52:57.816Z,81.76
2019-05-26T02:55:27.366Z,81.84
2019-05-26T02:57:57.744Z,81.84
2019-05-26T03:00:42.473Z,81.84
2019-05-26T03:03:13.367Z,81.86
2019-05-26T03:05:45.090Z,82.05
2019-05-26T03:08:16.296Z,82.12
2019-05-26T03:10:46.090Z,82.26
2019-05-26T03:13:18.262Z,82.45
2019-05-26T03:15:47.939Z,82.50
2019-05-26T03:18:18.021Z,82.50
2019-05-26T03:20:47.492Z,82.32
2019-05-26T03:23:17.999Z,82.33
2019-05-26T03:25:47.679Z,82.35
2019-05-26T03:28:17.198Z,82.48
2019-05-26T03:30:46.613Z,82.19
2019-05-26T03:33:16.621Z,81.98
2019-05-26T03:35:46.115Z,81.93
2019-05-26T03:38:15.553Z,82.17
2019-05-26T03:40:45.162Z,82.38
2019-05-26T03:43:14.771Z,82.39
2019-05-26T03:45:47.429Z,82.40
2019-05-26T03:48:17.296Z,82.56
2019-05-26T03:50:46.969Z,82.30
2019-05-26T03:53:16.417Z,82.17
2019-05-26T03:55:45.833Z,81.77
2019-05-26T03:58:15.995Z,81.37
2019-05-26T04:00:45.405Z,81.10
2019-05-26T04:03:16.360Z,80.90
2019-05-26T04:05:47.307Z,80.52
2019-05-26T04:08:16.790Z,80.28
2019-05-26T04:10:46.191Z,79.93
2019-05-26T04:13:15.648Z,79.09
2019-05-26T04:15:45.060Z,78.76
2019-05-26T04:18:14.579Z,78.42
2019-05-26T04:20:46.010Z,78.38
2019-05-26T04:23:15.163Z,78.30
2019-05-26T04:25:44.742Z,78.27
2019-05-26T04:28:14.189Z,78.11
2019-05-26T04:30:43.758Z,78.16
2019-05-26T04:33:13.994Z,77.91
2019-05-26T04:35:43.544Z,78.04
2019-05-26T04:38:13.059Z,77.90
2019-05-26T04:40:42.669Z,78.12
2019-05-26T04:43:14.872Z,78.38
2019-05-26T04:45:43.366Z,78.16
2019-05-26T04:48:12.778Z,78.60
2019-05-26T04:50:42.303Z,78.21
2019-05-26T04:53:11.720Z,78.30
2019-05-26T04:55:41.190Z,77.66
2019-05-26T04:58:10.650Z,77.20
2019-05-26T05:00:40.110Z,77.06
2019-05-26T05:03:09.508Z,76.59
2019-05-26T05:05:38.954Z,75.69
2019-05-26T05:08:08.365Z,75.80
2019-05-26T05:10:42.504Z,75.42
2019-05-26T05:13:08.926Z,75.40
2019-05-26T05:15:38.405Z,75.24
2019-05-26T05:18:07.852Z,75.13
2019-05-26T05:20:37.667Z,74.86
2019-05-26T05:23:07.169Z,75.05
2019-05-26T05:25:36.616Z,74.66
2019-05-26T05:28:06.030Z,75.19
2019-05-26T05:30:35.500Z,74.39
2019-05-26T05:33:04.967Z,74.75
2019-05-26T05:35:35.963Z,74.78
2019-05-26T05:38:05.415Z,74.58
2019-05-26T05:40:34.869Z,74.79
2019-05-26T05:43:05.775Z,74.93
2019-05-26T05:45:35.212Z,74.69
2019-05-26T05:48:05.243Z,74.39
2019-05-26T05:50:34.680Z,74.65
2019-05-26T05:53:04.316Z,73.87
2019-05-26T05:55:33.804Z,74.32
2019-05-26T05:58:03.450Z,73.52
2019-05-26T06:00:32.936Z,73.44
2019-05-26T06:03:02.438Z,74.20
2019-05-26T06:05:31.967Z,73.52
2019-05-26T06:08:01.417Z,73.44
2019-05-26T06:10:30.855Z,73.05
2019-05-26T06:13:00.325Z,73.33
2019-05-26T06:15:29.739Z,73.16
2019-05-26T06:17:59.198Z,72.87
2019-05-26T06:20:28.619Z,72.92
2019-05-26T06:22:58.069Z,73.12
2019-05-26T06:25:27.475Z,72.57
2019-05-26T06:27:56.989Z,72.06
2019-05-26T06:30:26.670Z,72.64
2019-05-26T06:32:56.401Z,72.78
2019-05-26T06:35:25.883Z,73.10
2019-05-26T06:37:55.356Z,72.74
2019-05-26T06:40:25.579Z,73.05
2019-05-26T06:42:55.042Z,73.56
2019-05-26T06:45:24.692Z,74.89
2019-05-26T06:47:54.274Z,75.03
2019-05-26T06:50:23.829Z,74.73
2019-05-26T06:52:55.028Z,75.19
2019-05-26T06:55:24.498Z,74.90
2019-05-26T06:57:53.964Z,75.05
2019-05-26T07:00:23.647Z,74.17
2019-05-26T07:02:53.253Z,73.30
2019-05-26T07:05:22.666Z,73.25
2019-05-26T07:07:52.091Z,73.53
2019-05-26T07:10:21.624Z,74.28
2019-05-26T07:12:51.118Z,74.15
2019-05-26T07:15:20.863Z,73.93
2019-05-26T07:17:50.448Z,73.55
2019-05-26T07:20:19.999Z,73.06
2019-05-26T07:22:49.843Z,73.40
2019-05-26T07:25:19.644Z,72.90
2019-05-26T07:27:49.785Z,73.25
2019-05-26T07:30:23.420Z,74.07
2019-05-26T07:32:52.111Z,74.42
2019-05-26T07:35:21.642Z,73.22
2019-05-26T07:37:51.240Z,73.47
2019-05-26T07:40:20.726Z,72.83
2019-05-26T07:42:50.181Z,72.54
2019-05-26T07:45:19.869Z,71.66
2019-05-26T07:47:49.468Z,69.78
2019-05-26T07:50:19.162Z,68.44
2019-05-26T07:52:48.585Z,67.54
2019-05-26T07:55:18.639Z,65.89
2019-05-26T07:57:48.199Z,66.73
2019-05-26T08:00:19.611Z,65.63
2019-05-26T08:02:49.085Z,65.04
2019-05-26T08:05:18.715Z,63.28
2019-05-26T08:07:48.159Z,62.53
2019-05-26T08:10:18.302Z,62.01
2019-05-26T08:12:47.910Z,61.62
2019-05-26T08:15:18.885Z,61.82
2019-05-26T08:17:48.497Z,60.72
2019-05-26T08:20:19.352Z,62.98
2019-05-26T08:22:48.814Z,61.59
2019-05-26T08:25:18.406Z,61.55
2019-05-26T08:27:47.851Z,62.49
2019-05-26T08:30:17.696Z,61.20
2019-05-26T08:32:47.207Z,60.29
2019-05-26T08:35:16.865Z,59.55
2019-05-26T08:37:46.455Z,58.65
2019-05-26T08:40:19.598Z,57.41
2019-05-26T08:42:52.862Z,58.42
2019-05-26T08:45:23.235Z,59.07
2019-05-26T08:47:53.356Z,58.18
2019-05-26T08:50:23.000Z,56.43
2019-05-26T08:52:52.484Z,56.57
2019-05-26T08:55:22.344Z,54.67
2019-05-26T08:57:51.854Z,55.22
2019-05-26T09:00:21.591Z,55.59
2019-05-26T09:02:51.782Z,56.50
2019-05-26T09:05:22.022Z,57.46
2019-05-26T09:07:51.633Z,57.15
2019-05-26T09:10:21.105Z,56.84
2019-05-26T09:13:00.138Z,56.47
2019-05-26T09:15:21.898Z,53.61
2019-05-26T09:17:51.368Z,52.91
2019-05-26T09:20:21.293Z,52.90
2019-05-26T09:22:50.725Z,53.49
2019-05-26T09:25:20.131Z,53.40
2019-05-26T09:27:51.143Z,52.67
2019-05-26T09:30:21.207Z,52.97
2019-05-26T09:32:50.943Z,52.53
2019-05-26T09:35:20.419Z,52.34
2019-05-26T09:37:49.880Z,52.02
2019-05-26T09:40:20.412Z,52.26
2019-05-26T09:42:49.858Z,54.51
2019-05-26T09:45:19.504Z,53.61
2019-05-26T09:47:49.770Z,53.03
2019-05-26T09:50:21.295Z,51.90
2019-05-26T09:52:50.721Z,52.12
2019-05-26T09:55:20.410Z,49.37
2019-05-26T09:57:49.917Z,48.67
2019-05-26T10:00:19.678Z,48.74
2019-05-26T10:02:50.670Z,50.51
2019-05-26T10:05:20.634Z,51.09
2019-05-26T10:07:50.068Z,51.98
2019-05-26T10:10:19.798Z,50.58
2019-05-26T10:12:49.498Z,49.58
2019-05-26T10:15:19.033Z,49.62
2019-05-26T10:17:48.549Z,47.16
2019-05-26T10:20:18.192Z,47.36
2019-05-26T10:22:47.636Z,48.15
2019-05-26T10:25:17.305Z,48.51
2019-05-26T10:27:46.926Z,50.58
2019-05-26T10:30:17.260Z,50.60
2019-05-26T10:32:46.965Z,50.22
2019-05-26T10:35:16.707Z,49.65
2019-05-26T10:37:46.142Z,50.08
2019-05-26T10:40:16.970Z,50.54
2019-05-26T10:42:46.419Z,49.30
2019-05-26T10:45:16.446Z,48.39
2019-05-26T10:47:45.939Z,49.76
2019-05-26T10:50:15.877Z,51.60
2019-05-26T10:52:45.329Z,50.63
2019-05-26T10:55:14.960Z,51.54
2019-05-26T10:57:44.739Z,52.85
2019-05-26T11:00:15.540Z,52.50
2019-05-26T11:02:45.281Z,53.89
2019-05-26T11:05:15.114Z,53.12
2019-05-26T11:07:44.555Z,53.72
2019-05-26T11:10:14.322Z,53.87
2019-05-26T11:12:43.753Z,51.96
2019-05-26T11:15:14.593Z,52.89
2019-05-26T11:17:44.070Z,53.26
2019-05-26T11:20:15.890Z,53.97
2019-05-26T11:22:45.376Z,54.85
2019-05-26T11:25:14.978Z,54.29
2019-05-26T11:27:44.709Z,53.52
2019-05-26T11:30:15.150Z,53.79
2019-05-26T11:32:44.664Z,54.56
2019-05-26T11:35:15.543Z,53.81
2019-05-26T11:37:44.992Z,53.73
2019-05-26T11:40:16.244Z,53.14
2019-05-26T11:42:45.764Z,53.83
2019-05-26T11:45:15.775Z,53.10
2019-05-26T11:47:46.855Z,53.15
2019-05-26T11:50:17.514Z,53.41
2019-05-26T11:52:47.047Z,53.81
2019-05-26T11:55:16.974Z,54.25
2019-05-26T11:57:46.480Z,53.94
2019-05-26T12:00:17.165Z,54.50
2019-05-26T12:02:47.108Z,54.39
2019-05-26T12:05:17.924Z,54.07
2019-05-26T12:07:47.866Z,53.62
2019-05-26T12:10:19.210Z,53.65
2019-05-26T12:12:48.649Z,52.03
2019-05-26T12:15:18.488Z,52.14
2019-05-26T12:17:47.955Z,53.38
2019-05-26T12:20:17.923Z,53.85
2019-05-26T12:22:47.464Z,53.48
2019-05-26T12:25:17.105Z,54.04
2019-05-26T12:27:46.719Z,54.72
2019-05-26T12:30:17.026Z,53.73
2019-05-26T12:32:46.537Z,54.36
2019-05-26T12:35:16.095Z,55.33
2019-05-26T12:37:48.284Z,54.10
2019-05-26T12:40:17.272Z,53.26
2019-05-26T12:42:48.288Z,51.28
2019-05-26T12:45:19.589Z,50.84
2019-05-26T12:47:49.041Z,49.41
2019-05-26T12:50:18.919Z,50.55
2019-05-26T12:52:48.355Z,50.67
2019-05-26T12:55:19.442Z,50.40
2019-05-26T12:57:48.877Z,51.51
2019-05-26T13:00:18.824Z,51.57
2019-05-26T13:02:48.670Z,52.79
2019-05-26T13:05:20.305Z,52.04
2019-05-26T13:07:49.741Z,53.47
2019-05-26T13:10:20.949Z,53.53
2019-05-26T13:12:50.456Z,53.53
2019-05-26T13:15:20.512Z,53.95
2019-05-26T13:17:49.994Z,53.50
2019-05-26T13:20:20.250Z,54.22
2019-05-26T13:22:49.696Z,55.05
2019-05-26T13:25:20.767Z,55.69
2019-05-26T13:27:50.176Z,55.88
2019-05-26T13:30:25.506Z,56.46
2019-05-26T13:32:54.904Z,55.97
2019-05-26T13:35:24.596Z,55.61
2019-05-26T13:37:53.998Z,54.95
2019-05-26T13:40:23.855Z,54.52
2019-05-26T13:42:53.243Z,54.26
2019-05-26T13:45:23.651Z,54.64
2019-05-26T13:47:53.474Z,55.21
2019-05-26T13:50:24.243Z,55.50
2019-05-26T13:52:53.706Z,57.07
2019-05-26T13:55:23.528Z,60.70
2019-05-26T13:57:53.369Z,62.26
2019-05-26T14:00:23.643Z,61.30
2019-05-26T14:02:53.158Z,61.37
2019-05-26T14:05:22.831Z,64.93
2019-05-26T14:07:52.798Z,66.90
2019-05-26T14:10:34.152Z,70.83
2019-05-26T14:13:04.098Z,71.72
2019-05-26T14:15:38.469Z,72.34
2019-05-26T14:18:05.866Z,74.48
2019-05-26T14:20:37.181Z,76.80
2019-05-26T14:23:07.745Z,77.66
2019-05-26T14:25:37.516Z,77.44
2019-05-26T14:28:08.695Z,78.83
2019-05-26T14:30:38.199Z,79.54
2019-05-26T14:33:07.723Z,79.54
2019-05-26T14:35:37.414Z,79.85
2019-05-26T14:38:06.857Z,81.39
2019-05-26T14:40:36.392Z,82.44
2019-05-26T14:43:06.329Z,83.63
2019-05-26T14:45:36.141Z,84.76
2019-05-26T14:48:06.335Z,84.58
2019-05-26T14:50:36.132Z,85.09
2019-05-26T14:53:05.631Z,83.74
2019-05-26T14:55:35.298Z,83.74
2019-05-26T14:58:15.250Z,84.30
2019-05-26T15:00:37.118Z,83.57
2019-05-26T15:03:06.933Z,84.24
2019-05-26T15:05:36.374Z,84.90
2019-05-26T15:08:07.362Z,84.60
2019-05-26T15:10:36.755Z,85.19
2019-05-26T15:13:09.177Z,85.34
2019-05-26T15:15:38.607Z,85.53
2019-05-26T15:18:08.025Z,84.98
2019-05-26T15:20:37.572Z,85.28
2019-05-26T15:23:07.113Z,85.28
2019-05-26T15:25:36.531Z,83.09
2019-05-26T15:28:06.328Z,83.12
2019-05-26T15:30:35.809Z,82.07
2019-05-26T15:33:05.784Z,82.42
2019-05-26T15:35:35.387Z,83.78
2019-05-26T15:38:04.817Z,83.54
2019-05-26T15:40:34.303Z,83.20
2019-05-26T15:43:04.711Z,82.64
2019-05-26T15:45:34.362Z,83.22
2019-05-26T15:48:03.927Z,84.40
2019-05-26T15:50:33.407Z,85.55
2019-05-26T15:53:02.809Z,86.76
2019-05-26T15:55:32.505Z,86.64
2019-05-26T15:58:01.903Z,86.67
2019-05-26T16:00:31.407Z,87.33
2019-05-26T16:03:00.891Z,87.66
2019-05-26T16:05:30.394Z,88.33
2019-05-26T16:07:59.887Z,88.87
2019-05-26T16:10:29.321Z,88.69
2019-05-26T16:12:58.788Z,88.50
2019-05-26T16:15:28.222Z,88.71
2019-05-26T16:17:57.631Z,88.15
2019-05-26T16:20:27.084Z,88.11
2019-05-26T16:22:56.488Z,87.81
2019-05-26T16:25:25.926Z,88.55
2019-05-26T16:27:55.414Z,89.35
2019-05-26T16:30:25.069Z,88.32
2019-05-26T16:32:54.470Z,87.97
2019-05-26T16:35:23.984Z,88.03
2019-05-26T16:37:53.457Z,88.18
2019-05-26T16:40:24.424Z,88.74
2019-05-26T16:42:53.825Z,88.70
2019-05-26T16:45:23.415Z,88.49
2019-05-26T16:47:52.815Z,88.70
2019-05-26T16:50:22.259Z,88.05
2019-05-26T16:52:54.484Z,88.35
2019-05-26T16:55:23.112Z,88.80
2019-05-26T16:57:52.536Z,89.32
2019-05-26T17:00:22.207Z,89.42
2019-05-26T17:02:51.723Z,88.92
2019-05-26T17:05:21.248Z,89.00
2019-05-26T17:07:50.729Z,89.00
2019-05-26T17:10:20.527Z,88.80
2019-05-26T17:12:49.935Z,88.57
2019-05-26T17:15:19.423Z,88.33
2019-05-26T17:17:48.858Z,88.09
2019-05-26T17:20:20.574Z,87.58
2019-05-26T17:22:50.229Z,88.31
2019-05-26T17:25:20.029Z,88.01
2019-05-26T17:27:49.443Z,87.12
2019-05-26T17:30:22.164Z,86.26
2019-05-26T17:32:50.436Z,86.57
2019-05-26T17:35:20.203Z,86.17
2019-05-26T17:37:49.790Z,86.61
2019-05-26T17:40:22.874Z,86.19
2019-05-26T17:42:52.907Z,86.06
2019-05-26T17:45:22.480Z,86.00
2019-05-26T17:47:53.494Z,85.04
2019-05-26T17:50:23.112Z,84.95
2019-05-26T17:52:52.564Z,84.66
2019-05-26T17:55:21.994Z,84.77
2019-05-26T17:57:51.460Z,84.54
2019-05-26T18:00:21.449Z,84.28
2019-05-26T18:02:51.051Z,85.36
2019-05-26T18:05:20.627Z,86.26
2019-05-26T18:07:50.141Z,87.22
2019-05-26T18:10:19.796Z,87.35
2019-05-26T18:12:49.267Z,88.77
2019-05-26T18:15:20.581Z,88.41
2019-05-26T18:17:50.311Z,89.24
2019-05-26T18:20:19.951Z,88.87
2019-05-26T18:22:49.439Z,88.59
2019-05-26T18:25:18.904Z,88.51
2019-05-26T18:27:48.370Z,89.10
2019-05-26T18:30:18.790Z,89.27
2019-05-26T18:32:48.299Z,89.47
2019-05-26T18:35:19.407Z,89.90
2019-05-26T18:37:52.142Z,90.17
2019-05-26T18:40:20.137Z,90.69
2019-05-26T18:42:49.685Z,90.63
2019-05-26T18:45:19.330Z,90.13
2019-05-26T18:48:01.735Z,90.36
2019-05-26T18:50:19.972Z,90.67
2019-05-26T18:52:49.401Z,90.91
2019-05-26T18:55:18.789Z,90.94
2019-05-26T18:57:48.242Z,91.45
2019-05-26T19:00:17.986Z,90.73
2019-05-26T19:02:47.518Z,90.72
2019-05-26T19:05:31.907Z,91.05
2019-05-26T19:07:48.099Z,90.85
2019-05-26T19:10:17.881Z,91.05
2019-05-26T19:12:47.485Z,91.46
2019-05-26T19:15:17.258Z,91.41
2019-05-26T19:17:46.709Z,91.58
2019-05-26T19:20:17.483Z,91.55
2019-05-26T19:22:47.050Z,91.42
2019-05-26T19:25:16.627Z,91.72
2019-05-26T19:27:46.081Z,91.49
2019-05-26T19:30:16.073Z,91.58
2019-05-26T19:32:45.829Z,91.67
2019-05-26T19:35:15.592Z,91.70
2019-05-26T19:37:45.150Z,91.93
2019-05-26T19:40:15.097Z,92.04
2019-05-26T19:42:44.610Z,92.05
2019-05-26T19:45:14.819Z,91.85
2019-05-26T19:47:44.258Z,91.85
2019-05-26T19:50:14.217Z,92.19
2019-05-26T19:52:43.797Z,92.43
2019-05-26T19:55:13.582Z,92.18
2019-05-26T19:57:43.168Z,92.32
2019-05-26T20:00:14.948Z,92.48
2019-05-26T20:02:44.380Z,92.55
2019-05-26T20:05:14.509Z,92.81
2019-05-26T20:07:44.103Z,92.74
2019-05-26T20:10:13.778Z,92.63
2019-05-26T20:12:43.334Z,92.81
2019-05-26T20:15:13.646Z,92.83
2019-05-26T20:17:43.166Z,92.80
2019-05-26T20:20:13.417Z,92.79
2019-05-26T20:22:42.866Z,92.54
2019-05-26T20:25:12.800Z,92.78
2019-05-26T20:27:42.312Z,92.98
2019-05-26T20:30:12.101Z,92.99
2019-05-26T20:32:41.672Z,93.01
2019-05-26T20:35:11.429Z,93.01
2019-05-26T20:37:40.860Z,92.97
2019-05-26T20:40:10.708Z,92.97
2019-05-26T20:42:40.135Z,92.85
2019-05-26T20:45:10.145Z,93.08
2019-05-26T20:47:39.580Z,92.92
2019-05-26T20:50:09.848Z,92.82
2019-05-26T20:52:39.511Z,92.83
2019-05-26T20:55:09.770Z,92.55
2019-05-26T20:57:39.205Z,92.80
2019-05-26T21:00:12.431Z,92.66
2019-05-26T21:02:42.360Z,93.00
2019-05-26T21:05:11.970Z,93.03
2019-05-26T21:07:41.608Z,93.13
2019-05-26T21:10:11.478Z,93.05
2019-05-26T21:12:41.001Z,93.07
2019-05-26T21:15:11.968Z,92.89
2019-05-26T21:17:41.413Z,92.98
2019-05-26T21:20:11.219Z,93.18
2019-05-26T21:22:40.842Z,93.08
2019-05-26T21:25:10.988Z,93.16
2019-05-26T21:27:40.418Z,93.08
2019-05-26T21:30:11.412Z,93.17
2019-05-26T21:32:40.847Z,93.27
2019-05-26T21:35:10.697Z,93.22
2019-05-26T21:37:40.103Z,93.13
2019-05-26T21:40:11.274Z,93.16
2019-05-26T21:42:40.853Z,93.23
2019-05-26T21:45:10.718Z,93.38
2019-05-26T21:47:41.301Z,93.53
2019-05-26T21:50:11.176Z,93.53
2019-05-26T21:52:40.600Z,93.39
2019-05-26T21:55:10.388Z,93.49
2019-05-26T21:57:41.377Z,93.10
2019-05-26T22:00:13.269Z,93.25
2019-05-26T22:02:42.717Z,93.28
2019-05-26T22:05:12.673Z,93.42
2019-05-26T22:07:42.114Z,93.27
2019-05-26T22:10:11.991Z,93.56
2019-05-26T22:12:41.426Z,93.38
2019-05-26T22:15:11.702Z,93.31
2019-05-26T22:17:41.261Z,93.30
2019-05-26T22:20:11.070Z,93.22
2019-05-26T22:22:40.657Z,93.39
2019-05-26T22:25:10.346Z,93.12
2019-05-26T22:27:39.786Z,93.26
2019-05-26T22:30:10.770Z,93.15
2019-05-26T22:32:40.174Z,93.28
2019-05-26T22:35:10.077Z,93.16
2019-05-26T22:37:39.480Z,93.21
2019-05-26T22:40:09.200Z,93.14
2019-05-26T22:42:38.789Z,92.95
2019-05-26T22:45:09.842Z,92.95
2019-05-26T22:47:39.345Z,92.81
2019-05-26T22:50:10.229Z,93.07
2019-05-26T22:52:39.673Z,93.02
2019-05-26T22:55:09.522Z,92.79
2019-05-26T22:57:38.978Z,92.69
2019-05-26T23:00:09.766Z,93.13
2019-05-26T23:02:39.402Z,93.25
2019-05-26T23:05:21.881Z,93.32
2019-05-26T23:07:51.435Z,93.38
2019-05-26T23:10:21.160Z,93.20
2019-05-26T23:12:50.602Z,93.00
2019-05-26T23:15:20.340Z,93.24
2019-05-26T23:17:49.779Z,93.25
2019-05-26T23:20:19.463Z,93.34
2019-05-26T23:22:48.995Z,93.33
2019-05-26T23:25:18.672Z,93.44
2019-05-26T23:27:48.118Z,93.22
2019-05-26T23:30:17.976Z,92.98
2019-05-26T23:32:47.500Z,93.09
2019-05-26T23:35:16.900Z,93.13
2019-05-26T23:37:46.445Z,93.14
2019-05-26T23:40:16.162Z,92.88
2019-05-26T23:42:45.621Z,92.97
2019-05-26T23:45:15.158Z,93.28
2019-05-26T23:47:44.604Z,93.45
2019-05-26T23:50:14.073Z,93.41
2019-05-26T23:52:44.747Z,93.29
2019-05-26T23:55:14.606Z,93.31
2019-05-26T23:57:44.057Z,93.46
